Sky Manor (N40)
Pittstown, NJ
Field Elevation: 560
Lat: 40°33.95N  Long: 74°58.76W
CTAF/Unicom Freq: 122.9750
Weather Advisories
2018-03-17   17:52 Z
Altimeter 29.77" Hg
Wind 250° @ 12 KT
Gusts 23 KT
Visibility 10 SM
Ceiling FEW210
Temperature 6° C (43° F)
Dewpoint -18° C (0° F)
Relative Humidity 0%
Density Altitude --
Condensation Altitude 12,500 feet
Wind Chill: 2° C (36° F)
Wind and Runways
Indicated Runway = 25
Headwind = 12 kt
Crosswind = 0 kt
More Info
All DigiWx sites map
NOAA Forecast
Airport IQ 5010
(4N1) Greenwood Lake, NJ
(PN44) Upper Gwynedd Heliport
about DigiWx
FAA Disclaimer: The data displayed is for advisory purposes only and is not to be used for flight planning or operations. For official data, please call (not available) to hear the current automated AWOS voice message.
  METAR N40 171752Z AUTO 25012G23KT 10 SM FEW210 06/M18 A2977